Time;durP1;ratioP1;P1;durP2;ratioP2;P2;SDS_P1;SDS_P2;PMS_P1;PMS_P2;Temp;Humidity;BMP_temperature;BMP_pressure;BME280_temperature;BME280_humidity;BME280_pressure;Samples;Min_cycle;Max_cycle;Signal;HPM_P1;HPM_P2
2021/07/17 00:01:49;;;;;;;0.85;0.85;;;20.90;88.30;;;;;;5049190;28;20183;-74
2021/07/17 00:04:15;;;;;;;1.48;1.30;;;20.90;88.70;;;;;;5056094;28;20191;-74
2021/07/17 00:06:40;;;;;;;0.98;0.90;;;20.80;89.50;;;;;;5053118;28;20195;-74
2021/07/17 00:09:07;;;;;;;0.75;0.75;;;20.80;89.20;;;;;;5058139;28;20269;-74
2021/07/17 00:11:33;;;;;;;1.48;1.15;;;20.70;89.80;;;;;;5045642;28;20348;-74
2021/07/17 00:13:59;;;;;;;0.95;0.95;;;20.60;90.10;;;;;;5058634;28;20183;-74
2021/07/17 00:16:28;;;;;;;1.33;0.90;;;20.60;89.90;;;;;;5053210;28;21050;-74
2021/07/17 00:18:55;;;;;;;0.95;0.90;;;20.50;89.70;;;;;;5058745;28;20174;-74
2021/07/17 00:21:21;;;;;;;1.08;1.08;;;20.50;90.20;;;;;;5053263;28;20188;-74
2021/07/17 00:23:48;;;;;;;2.28;1.52;;;20.40;90.00;;;;;;5058336;28;20720;-74
2021/07/17 00:26:13;;;;;;;3.40;1.08;;;20.40;90.40;;;;;;5048785;28;20233;-74
2021/07/17 00:28:39;;;;;;;1.10;1.08;;;20.50;89.60;;;;;;5060183;28;20195;-74
2021/07/17 00:31:05;;;;;;;1.95;1.17;;;20.50;89.40;;;;;;5053750;28;20242;-74
2021/07/17 00:33:30;;;;;;;1.08;1.08;;;20.50;89.70;;;;;;5054725;28;20274;-74
2021/07/17 00:35:56;;;;;;;1.25;1.25;;;20.40;89.80;;;;;;5049678;28;20387;-74
2021/07/17 00:38:22;;;;;;;1.17;1.17;;;20.50;89.30;;;;;;5055677;28;20187;-74
2021/07/17 00:40:48;;;;;;;1.38;1.05;;;20.50;89.20;;;;;;5051148;28;20334;-74
2021/07/17 00:43:14;;;;;;;1.02;1.02;;;20.50;89.60;;;;;;5050907;28;20179;-74
2021/07/17 00:45:40;;;;;;;1.10;1.10;;;20.50;89.60;;;;;;5051130;28;20188;-74
2021/07/17 00:48:06;;;;;;;1.20;1.20;;;20.50;89.60;;;;;;5054815;28;20194;-74
2021/07/17 00:50:31;;;;;;;1.00;1.00;;;20.50;89.80;;;;;;5051385;28;20187;-74
2021/07/17 00:52:57;;;;;;;1.10;1.10;;;20.50;89.30;;;;;;5055579;28;20203;-74
2021/07/17 00:55:26;;;;;;;0.90;0.90;;;20.60;89.00;;;;;;5047988;28;20184;-74
2021/07/17 00:57:53;;;;;;;2.90;1.33;;;20.60;88.50;;;;;;5056486;28;20230;-74
2021/07/17 01:00:19;;;;;;;3.88;1.40;;;20.60;88.60;;;;;;5052677;28;20180;-74
2021/07/17 01:02:54;;;;;;;1.15;1.13;;;20.70;88.40;;;;;;5054268;28;20205;-74
2021/07/17 01:05:20;;;;;;;1.85;1.38;;;20.70;88.00;;;;;;5052293;28;20656;-74
2021/07/17 01:07:46;;;;;;;1.60;1.48;;;20.70;88.40;;;;;;5055473;28;20183;-74
2021/07/17 01:10:14;;;;;;;1.15;1.10;;;20.70;88.40;;;;;;5052662;28;20185;-74
2021/07/17 01:12:39;;;;;;;1.60;1.50;;;20.80;88.00;;;;;;5054533;28;20191;-74
2021/07/17 01:15:06;;;;;;;1.42;1.42;;;20.80;88.10;;;;;;5051727;28;20191;-74
2021/07/17 01:17:33;;;;;;;1.48;0.90;;;20.90;87.70;;;;;;5053396;28;20239;-74
2021/07/17 01:20:00;;;;;;;1.13;1.13;;;20.90;87.70;;;;;;5051575;28;20184;-73
2021/07/17 01:22:26;;;;;;;2.42;1.35;;;21.00;87.60;;;;;;5053034;28;20265;-73
2021/07/17 01:24:53;;;;;;;1.70;1.50;;;21.00;87.40;;;;;;5050384;28;20191;-73
2021/07/17 01:27:19;;;;;;;1.17;1.17;;;21.00;87.40;;;;;;5050421;28;20195;-73
2021/07/17 01:29:46;;;;;;;1.50;1.50;;;21.00;87.30;;;;;;5051695;28;20722;-74
2021/07/17 01:32:13;;;;;;;1.27;1.27;;;21.00;87.10;;;;;;5049558;28;20598;-73
2021/07/17 01:34:39;;;;;;;1.65;1.60;;;21.00;87.10;;;;;;5049245;28;20291;-73
2021/07/17 01:37:04;;;;;;;2.47;1.35;;;21.00;87.20;;;;;;5049293;28;20667;-73
2021/07/17 01:39:30;;;;;;;1.38;1.38;;;21.00;87.20;;;;;;5050591;28;20237;-73
2021/07/17 01:41:56;;;;;;;1.30;1.30;;;21.00;87.10;;;;;;5050282;28;20241;-73
2021/07/17 01:44:22;;;;;;;1.48;1.38;;;21.00;87.10;;;;;;5047558;28;20179;-73
2021/07/17 01:46:47;;;;;;;2.30;1.52;;;21.00;87.30;;;;;;5050619;28;20270;-73
2021/07/17 01:49:13;;;;;;;1.83;1.83;;;21.00;87.30;;;;;;5049816;28;20183;-73
2021/07/17 01:51:39;;;;;;;1.60;1.60;;;21.00;87.50;;;;;;5048165;28;20569;-73
2021/07/17 01:54:05;;;;;;;1.60;1.60;;;21.00;87.60;;;;;;5047694;28;20180;-73
2021/07/17 01:56:31;;;;;;;1.85;1.77;;;21.00;88.00;;;;;;5054205;28;20770;-73
2021/07/17 01:58:56;;;;;;;1.65;1.65;;;20.90;87.70;;;;;;5052337;28;20188;-73
2021/07/17 02:01:25;;;;;;;1.48;1.40;;;20.90;87.80;;;;;;5051602;28;20225;-73
2021/07/17 02:03:51;;;;;;;3.08;1.63;;;20.80;87.80;;;;;;5051934;28;20266;-74
2021/07/17 02:06:28;;;;;;;2.13;2.03;;;20.80;88.20;;;;;;5052706;28;20684;-74
2021/07/17 02:08:54;;;;;;;2.53;1.77;;;20.80;88.00;;;;;;5053143;28;20186;-74
2021/07/17 02:11:21;;;;;;;2.50;2.30;;;20.70;88.80;;;;;;5051279;28;20208;-74
2021/07/17 02:13:49;;;;;;;1.77;1.77;;;20.70;88.70;;;;;;5053545;28;20179;-74
2021/07/17 02:16:15;;;;;;;1.90;1.90;;;20.60;88.80;;;;;;5050574;28;20195;-74
2021/07/17 02:18:42;;;;;;;2.28;1.67;;;20.50;89.00;;;;;;5054606;28;20175;-74
2021/07/17 02:21:08;;;;;;;3.22;2.47;;;20.50;88.90;;;;;;5051002;28;20187;-74
2021/07/17 02:23:35;;;;;;;1.70;1.60;;;20.50;89.30;;;;;;5055084;28;20569;-74
2021/07/17 02:26:01;;;;;;;1.75;1.75;;;20.50;89.10;;;;;;5043631;28;20184;-74
2021/07/17 02:28:27;;;;;;;1.85;1.80;;;20.50;89.50;;;;;;5055002;28;20186;-74
2021/07/17 02:30:53;;;;;;;1.60;1.60;;;20.50;89.50;;;;;;5050492;28;20175;-74
2021/07/17 02:33:19;;;;;;;1.70;1.35;;;20.50;89.50;;;;;;5049926;28;20316;-73
2021/07/17 02:35:46;;;;;;;2.00;1.90;;;20.50;89.50;;;;;;5048740;28;20270;-73
2021/07/17 02:38:13;;;;;;;5.47;1.50;;;20.50;89.60;;;;;;5051747;28;20285;-73
2021/07/17 02:40:39;;;;;;;1.77;1.75;;;20.50;89.70;;;;;;5048688;28;20263;-73
2021/07/17 02:43:04;;;;;;;1.45;1.45;;;20.50;89.70;;;;;;5048601;28;20241;-73
2021/07/17 02:45:30;;;;;;;3.22;1.50;;;20.50;89.70;;;;;;5048686;28;20229;-73
2021/07/17 02:47:56;;;;;;;2.40;1.25;;;20.50;89.70;;;;;;5051368;28;20194;-73
2021/07/17 02:50:22;;;;;;;1.20;1.20;;;20.50;89.60;;;;;;5048856;28;20280;-73
2021/07/17 02:52:48;;;;;;;1.77;1.67;;;20.50;89.50;;;;;;5052839;28;20175;-73
2021/07/17 02:55:14;;;;;;;1.42;1.40;;;20.50;89.70;;;;;;5046778;28;20187;-73
2021/07/17 02:57:40;;;;;;;2.08;1.40;;;20.50;90.00;;;;;;5050492;28;20248;-73
2021/07/17 03:00:08;;;;;;;1.85;1.42;;;20.50;89.60;;;;;;5051443;28;20218;-73
2021/07/17 03:02:34;;;;;;;1.60;1.50;;;20.50;89.50;;;;;;5052436;28;20248;-73
2021/07/17 03:05:00;;;;;;;1.73;1.63;;;20.50;89.50;;;;;;5051412;28;20659;-73
2021/07/17 03:07:25;;;;;;;2.47;1.80;;;20.60;89.50;;;;;;5056240;28;20245;-73
2021/07/17 03:09:51;;;;;;;1.33;1.30;;;20.60;89.30;;;;;;5051693;28;20184;-73
2021/07/17 03:12:17;;;;;;;1.50;1.50;;;20.60;89.20;;;;;;5056773;28;20182;-73
2021/07/17 03:14:43;;;;;;;1.58;1.50;;;20.70;88.90;;;;;;5050585;28;20204;-73
2021/07/17 03:17:09;;;;;;;1.75;1.65;;;20.70;88.70;;;;;;5057184;28;20757;-73
2021/07/17 03:19:34;;;;;;;1.40;1.30;;;20.70;88.20;;;;;;5051971;28;20186;-73
2021/07/17 03:22:00;;;;;;;3.35;2.00;;;20.70;87.60;;;;;;5057402;28;20179;-73
2021/07/17 03:24:26;;;;;;;1.48;1.48;;;20.70;86.20;;;;;;5051784;28;20731;-73
2021/07/17 03:26:51;;;;;;;1.83;1.77;;;20.70;86.60;;;;;;5050942;28;20690;-74
2021/07/17 03:29:17;;;;;;;4.78;1.80;;;20.70;86.00;;;;;;5051033;28;20680;-74
2021/07/17 03:31:43;;;;;;;2.35;1.80;;;20.70;85.40;;;;;;5053403;28;20665;-74
2021/07/17 03:34:09;;;;;;;2.20;1.83;;;20.70;85.20;;;;;;5048791;28;20191;-74
2021/07/17 03:36:35;;;;;;;1.52;1.42;;;20.70;85.00;;;;;;5050526;28;20210;-74
2021/07/17 03:39:00;;;;;;;4.88;1.70;;;20.70;84.90;;;;;;5052345;28;20186;-74
2021/07/17 03:41:26;;;;;;;2.38;2.03;;;20.80;84.90;;;;;;5055696;28;20201;-74
2021/07/17 03:43:52;;;;;;;1.88;1.83;;;20.80;84.70;;;;;;5049034;28;20219;-74
2021/07/17 03:46:17;;;;;;;2.35;1.92;;;20.80;84.80;;;;;;5055815;28;20187;-74
2021/07/17 03:48:43;;;;;;;2.20;2.05;;;20.80;85.00;;;;;;5052318;28;20183;-73
2021/07/17 03:51:09;;;;;;;2.03;1.92;;;20.80;85.30;;;;;;5055279;28;20187;-74
2021/07/17 03:53:35;;;;;;;2.83;1.92;;;20.80;85.50;;;;;;5051801;28;20184;-74
2021/07/17 03:56:00;;;;;;;2.75;1.98;;;20.80;85.80;;;;;;5052130;28;20258;-74
2021/07/17 03:58:26;;;;;;;2.50;2.30;;;20.80;86.00;;;;;;5053178;28;20704;-74
2021/07/17 04:00:52;;;;;;;2.70;2.60;;;20.80;86.20;;;;;;5053900;28;20221;-74
2021/07/17 04:03:18;;;;;;;2.55;2.45;;;20.80;86.40;;;;;;5052582;28;20812;-74
2021/07/17 04:05:43;;;;;;;4.68;2.15;;;20.80;86.70;;;;;;5056222;28;20183;-74
2021/07/17 04:08:09;;;;;;;2.80;2.65;;;20.80;86.60;;;;;;5053034;28;20672;-74
2021/07/17 04:10:35;;;;;;;2.80;2.70;;;20.80;87.00;;;;;;5052266;28;20234;-74
2021/07/17 04:13:04;;;;;;;3.95;2.72;;;20.90;87.40;;;;;;5052669;28;20188;-74
2021/07/17 04:15:30;;;;;;;2.58;2.40;;;20.90;87.40;;;;;;5056005;28;20199;-74
2021/07/17 04:17:55;;;;;;;3.47;2.67;;;20.90;87.90;;;;;;5052416;28;20212;-74
2021/07/17 04:20:21;;;;;;;2.83;2.63;;;20.90;87.90;;;;;;5056522;28;20790;-74
2021/07/17 04:22:47;;;;;;;2.55;2.45;;;20.90;88.10;;;;;;5052417;28;20179;-74
2021/07/17 04:25:13;;;;;;;5.57;2.50;;;20.90;87.90;;;;;;5052314;28;20176;-74
2021/07/17 04:27:39;;;;;;;3.45;3.15;;;21.00;88.10;;;;;;5052013;28;20191;-74
2021/07/17 04:30:07;;;;;;;3.28;2.90;;;21.00;88.20;;;;;;5056081;28;20183;-74
2021/07/17 04:32:33;;;;;;;2.58;2.47;;;21.00;88.00;;;;;;5049171;28;20570;-74
2021/07/17 04:34:59;;;;;;;2.30;2.20;;;21.00;88.00;;;;;;5050439;28;20195;-74
2021/07/17 04:37:25;;;;;;;3.17;2.88;;;21.10;88.10;;;;;;5050570;28;20223;-74
2021/07/17 04:39:51;;;;;;;3.25;2.88;;;21.10;88.10;;;;;;5053025;28;20187;-74
2021/07/17 04:42:18;;;;;;;2.83;2.55;;;21.10;88.30;;;;;;5050208;28;20206;-74
2021/07/17 04:44:44;;;;;;;3.40;2.75;;;21.20;88.20;;;;;;5050446;28;20179;-74
2021/07/17 04:47:10;;;;;;;2.75;2.47;;;21.20;88.30;;;;;;5049839;28;20191;-74
2021/07/17 04:49:35;;;;;;;4.15;3.58;;;21.30;88.10;;;;;;5051985;28;20599;-74
2021/07/17 04:52:01;;;;;;;3.20;3.03;;;21.30;88.20;;;;;;5049774;28;20184;-74
2021/07/17 04:54:27;;;;;;;3.58;3.28;;;21.30;88.20;;;;;;5052292;28;20178;-74
2021/07/17 04:56:53;;;;;;;3.33;3.10;;;21.40;88.10;;;;;;5052108;28;20215;-74
2021/07/17 04:59:18;;;;;;;3.05;2.65;;;21.40;87.90;;;;;;5056181;28;20182;-74
2021/07/17 05:01:44;;;;;;;3.33;3.03;;;21.40;87.90;;;;;;5049408;28;20229;-74
2021/07/17 05:04:11;;;;;;;4.57;3.20;;;21.50;87.70;;;;;;5056121;28;20182;-74
2021/07/17 05:06:37;;;;;;;3.47;3.17;;;21.60;87.60;;;;;;5051767;28;20188;-74
2021/07/17 05:09:04;;;;;;;3.97;3.50;;;21.60;87.40;;;;;;5055818;28;20194;-73
2021/07/17 05:11:30;;;;;;;3.92;3.53;;;21.60;87.10;;;;;;5051475;28;20690;-73
2021/07/17 05:13:57;;;;;;;4.40;4.00;;;21.70;87.30;;;;;;5055771;28;20257;-72
2021/07/17 05:16:22;;;;;;;4.10;3.75;;;21.80;86.70;;;;;;5051076;28;20214;-74
2021/07/17 05:18:48;;;;;;;4.25;3.58;;;21.80;86.40;;;;;;5054980;28;20665;-74
2021/07/17 05:21:15;;;;;;;4.07;3.55;;;21.80;86.40;;;;;;5051477;28;20207;-74
2021/07/17 05:23:42;;;;;;;3.50;3.30;;;21.90;85.80;;;;;;5055079;28;20190;-74
2021/07/17 05:26:08;;;;;;;5.68;3.78;;;21.90;85.40;;;;;;5047051;28;20179;-74
2021/07/17 05:28:33;;;;;;;3.67;3.17;;;22.00;85.10;;;;;;5054589;28;20198;-74
2021/07/17 05:30:59;;;;;;;3.80;3.50;;;22.00;85.00;;;;;;5051204;28;20202;-74
2021/07/17 05:33:25;;;;;;;3.72;3.38;;;22.00;84.80;;;;;;5050774;28;20187;-74
2021/07/17 05:35:51;;;;;;;3.42;3.05;;;22.10;84.60;;;;;;5046649;28;20179;-74
2021/07/17 05:38:16;;;;;;;3.28;3.10;;;22.10;84.40;;;;;;5051272;28;20289;-74
2021/07/17 05:40:42;;;;;;;3.95;3.60;;;22.20;84.00;;;;;;5048982;28;20258;-74
2021/07/17 05:43:08;;;;;;;3.60;3.33;;;22.20;83.80;;;;;;5048529;28;20179;-74
2021/07/17 05:45:35;;;;;;;3.15;3.05;;;22.30;83.80;;;;;;5048785;28;20197;-74
2021/07/17 05:48:02;;;;;;;3.78;3.47;;;22.30;83.90;;;;;;5051374;28;20179;-73
2021/07/17 05:50:28;;;;;;;4.13;3.03;;;22.30;83.50;;;;;;5049382;28;20184;-73
2021/07/17 05:52:53;;;;;;;3.40;3.10;;;22.40;83.00;;;;;;5053089;28;20626;-74
2021/07/17 05:55:19;;;;;;;3.13;3.03;;;22.50;83.30;;;;;;5046894;28;20304;-73
2021/07/17 05:57:44;;;;;;;5.13;3.88;;;22.50;83.20;;;;;;5054446;28;20238;-73
2021/07/17 06:00:11;;;;;;;5.50;3.22;;;22.50;82.50;;;;;;5050513;28;20184;-73
2021/07/17 06:02:36;;;;;;;4.07;3.67;;;22.60;82.40;;;;;;5052220;28;21007;-73
2021/07/17 06:05:03;;;;;;;5.13;3.83;;;22.70;82.20;;;;;;5050734;28;20176;-73
2021/07/17 06:07:28;;;;;;;6.10;3.97;;;22.70;82.10;;;;;;5055130;28;20521;-74
2021/07/17 06:09:54;;;;;;;3.95;3.17;;;22.80;82.20;;;;;;5051111;28;20257;-74
2021/07/17 06:12:19;;;;;;;4.03;3.70;;;22.90;81.70;;;;;;5056052;28;20263;-74
2021/07/17 06:14:45;;;;;;;3.58;3.38;;;22.90;80.90;;;;;;5043283;28;20564;-74
2021/07/17 06:17:11;;;;;;;6.38;3.67;;;23.00;80.60;;;;;;5055801;28;20218;-75
2021/07/17 06:19:57;;;;;;;3.55;3.35;;;23.10;80.60;;;;;;5051031;28;20679;-73
2021/07/17 06:22:23;;;;;;;5.28;3.58;;;23.10;81.00;;;;;;5049295;28;20187;-73
2021/07/17 06:24:49;;;;;;;3.45;3.17;;;23.20;79.90;;;;;;5050436;28;20186;-73
2021/07/17 06:27:14;;;;;;;4.05;2.90;;;23.30;79.50;;;;;;5050594;28;20187;-73
2021/07/17 06:29:40;;;;;;;2.58;2.47;;;23.30;77.40;;;;;;5051769;28;20264;-73
2021/07/17 06:32:06;;;;;;;3.03;2.72;;;23.40;78.30;;;;;;5050517;28;20183;-74
2021/07/17 06:34:32;;;;;;;9.75;2.20;;;23.40;77.30;;;;;;5049012;28;20301;-74
2021/07/17 06:36:59;;;;;;;5.28;1.85;;;23.40;75.50;;;;;;5049444;28;20223;-74
2021/07/17 06:39:25;;;;;;;1.90;1.90;;;23.50;74.90;;;;;;5049874;28;20687;-74
2021/07/17 06:41:50;;;;;;;2.10;2.00;;;23.60;74.90;;;;;;5052090;28;20278;-74
2021/07/17 06:44:16;;;;;;;2.65;2.45;;;23.60;75.20;;;;;;5046148;28;20222;-74
2021/07/17 06:46:42;;;;;;;2.22;2.00;;;23.70;73.80;;;;;;5051419;28;20210;-73
2021/07/17 06:49:07;;;;;;;2.20;2.10;;;23.70;74.50;;;;;;5049282;28;20191;-74
2021/07/17 06:51:33;;;;;;;2.10;2.10;;;23.80;74.20;;;;;;5051037;28;20195;-74
2021/07/17 06:53:59;;;;;;;2.70;1.98;;;23.90;74.20;;;;;;5046785;28;20188;-73
2021/07/17 06:56:25;;;;;;;3.00;2.00;;;23.90;73.10;;;;;;5055139;28;20272;-74
2021/07/17 06:58:51;;;;;;;2.60;2.40;;;24.00;71.80;;;;;;5051035;28;20235;-73
2021/07/17 07:01:17;;;;;;;2.60;1.77;;;24.00;71.10;;;;;;5052192;28;20701;-75
2021/07/17 07:03:43;;;;;;;1.77;1.60;;;24.10;71.80;;;;;;5051264;28;20277;-74
2021/07/17 07:06:10;;;;;;;1.70;1.60;;;24.20;72.40;;;;;;5054229;28;20460;-74
2021/07/17 07:08:35;;;;;;;2.70;1.40;;;24.30;70.80;;;;;;5051567;28;20188;-74
2021/07/17 07:11:02;;;;;;;1.83;1.73;;;24.30;70.20;;;;;;5057668;28;20182;-74
2021/07/17 07:13:28;;;;;;;2.10;1.90;;;24.40;70.80;;;;;;5055867;28;20183;-74
2021/07/17 07:15:54;;;;;;;1.70;1.70;;;24.50;71.50;;;;;;5058064;28;20203;-74
2021/07/17 07:18:20;;;;;;;3.60;1.75;;;24.60;71.30;;;;;;5055661;28;20211;-74
2021/07/17 07:20:45;;;;;;;2.03;1.83;;;24.60;69.40;;;;;;5058010;28;20440;-73
2021/07/17 07:23:11;;;;;;;1.98;1.60;;;24.70;70.10;;;;;;5050637;28;20187;-74
2021/07/17 07:25:37;;;;;;;2.00;1.90;;;24.70;71.00;;;;;;5050757;28;20660;-74
2021/07/17 07:28:03;;;;;;;2.47;1.58;;;24.80;71.30;;;;;;5051437;28;20377;-73
2021/07/17 07:30:29;;;;;;;2.10;1.95;;;24.90;69.60;;;;;;5052984;28;20182;-73
2021/07/17 07:32:55;;;;;;;3.28;1.83;;;25.00;69.30;;;;;;5050364;28;20263;-73
2021/07/17 07:35:23;;;;;;;2.20;2.10;;;25.00;70.10;;;;;;5054431;28;20692;-73
2021/07/17 07:37:50;;;;;;;2.45;2.13;;;25.10;70.00;;;;;;5048733;28;20302;-74
2021/07/17 07:40:16;;;;;;;1.80;1.80;;;25.30;70.80;;;;;;5051734;28;20574;-75
2021/07/17 07:42:43;;;;;;;1.85;1.75;;;25.40;70.00;;;;;;5051588;28;20657;-75
2021/07/17 07:45:09;;;;;;;6.20;1.90;;;25.40;69.10;;;;;;5050181;28;20657;-73
2021/07/17 07:47:35;;;;;;;1.67;1.63;;;25.50;68.00;;;;;;5052879;28;20739;-74
2021/07/17 07:50:01;;;;;;;3.15;2.05;;;25.50;66.40;;;;;;5053413;28;20180;-75
2021/07/17 07:52:27;;;;;;;1.67;1.65;;;25.50;67.20;;;;;;5053472;28;20249;-74
2021/07/17 07:54:53;;;;;;;2.00;1.90;;;25.50;66.50;;;;;;5053992;28;20183;-75
2021/07/17 07:57:19;;;;;;;1.33;1.33;;;25.50;66.90;;;;;;5050304;28;20587;-73
2021/07/17 07:59:45;;;;;;;1.75;1.45;;;25.60;68.00;;;;;;5057617;28;20199;-74
2021/07/17 08:02:11;;;;;;;4.22;1.48;;;25.70;67.30;;;;;;5052664;28;20196;-74
2021/07/17 08:04:37;;;;;;;1.90;1.80;;;25.70;67.20;;;;;;5057228;28;20557;-74
2021/07/17 08:07:03;;;;;;;1.75;1.67;;;25.80;68.00;;;;;;5055532;28;20573;-74
2021/07/17 08:09:28;;;;;;;1.88;1.70;;;25.90;67.40;;;;;;5057458;28;20175;-74
2021/07/17 08:11:54;;;;;;;5.82;1.60;;;26.00;66.00;;;;;;5055443;28;20219;-74
2021/07/17 08:14:21;;;;;;;3.13;2.25;;;26.10;67.00;;;;;;5056548;28;20186;-74
2021/07/17 08:16:47;;;;;;;2.40;1.75;;;26.20;67.40;;;;;;5056130;28;20211;-74
2021/07/17 08:19:13;;;;;;;5.30;1.80;;;26.30;67.00;;;;;;5056134;28;20191;-74
2021/07/17 08:21:39;;;;;;;1.80;1.48;;;26.40;66.90;;;;;;5054886;28;20186;-74
2021/07/17 08:24:06;;;;;;;6.68;1.83;;;26.50;65.50;;;;;;5055594;28;20245;-74
2021/07/17 08:26:32;;;;;;;2.08;1.60;;;26.60;66.50;;;;;;5050514;28;20207;-74
2021/07/17 08:28:58;;;;;;;1.77;1.67;;;26.70;66.30;;;;;;5053515;28;20227;-74
2021/07/17 08:31:25;;;;;;;1.50;1.50;;;26.80;66.00;;;;;;5054576;28;20205;-73
2021/07/17 08:33:51;;;;;;;4.85;1.50;;;26.80;64.80;;;;;;5048966;28;20368;-73
2021/07/17 08:36:17;;;;;;;2.25;1.65;;;26.80;65.40;;;;;;5048691;28;20566;-73
2021/07/17 08:38:44;;;;;;;1.80;1.70;;;26.90;65.30;;;;;;5052274;28;20353;-73
2021/07/17 08:41:11;;;;;;;2.47;2.00;;;27.00;64.70;;;;;;5050685;28;20279;-73
2021/07/17 08:43:40;;;;;;;1.30;1.30;;;27.10;64.90;;;;;;5049346;28;20234;-73
2021/07/17 08:46:06;;;;;;;3.50;1.73;;;27.20;64.00;;;;;;5052536;28;20587;-73
2021/07/17 08:48:33;;;;;;;5.85;1.40;;;27.30;62.40;;;;;;5050937;28;20245;-73
2021/07/17 08:51:00;;;;;;;1.70;1.60;;;27.40;63.10;;;;;;5052802;28;20211;-73
2021/07/17 08:53:26;;;;;;;2.78;1.23;;;27.50;63.10;;;;;;5052712;28;20458;-73
2021/07/17 08:55:53;;;;;;;1.55;1.30;;;27.60;61.30;;;;;;5075766;28;20585;-74
2021/07/17 08:58:19;;;;;;;3.47;1.40;;;27.70;62.70;;;;;;5052400;28;20288;-74
2021/07/17 09:00:45;;;;;;;1.50;1.50;;;27.80;61.40;;;;;;5054319;28;20645;-73
2021/07/17 09:03:13;;;;;;;1.90;1.48;;;27.80;61.60;;;;;;5051992;28;20188;-73
2021/07/17 09:05:43;;;;;;;1.55;1.55;;;27.90;61.60;;;;;;5055316;28;20266;-73
2021/07/17 09:08:09;;;;;;;2.58;1.05;;;28.00;60.00;;;;;;5053017;28;20274;-74
2021/07/17 09:10:39;;;;;;;1.65;1.40;;;28.00;59.50;;;;;;5056396;28;20247;-73
2021/07/17 09:13:07;;;;;;;2.08;1.67;;;28.00;60.50;;;;;;5041797;28;20192;-74
2021/07/17 09:15:33;;;;;;;2.67;1.45;;;28.10;61.40;;;;;;5056386;28;20210;-74
2021/07/17 09:17:59;;;;;;;1.50;1.50;;;28.20;59.70;;;;;;5051358;28;20298;-74
2021/07/17 09:20:25;;;;;;;2.05;1.40;;;28.30;60.40;;;;;;5054023;28;20273;-74
2021/07/17 09:23:06;;;;;;;3.80;1.30;;;28.40;58.90;;;;;;5051023;28;20183;-74
2021/07/17 09:25:42;;;;;;;1.30;1.20;;;28.50;58.70;;;;;;5046503;28;20650;-74
2021/07/17 09:28:22;;;;;;;1.85;1.75;;;28.60;58.40;;;;;;5053689;28;20183;-74
2021/07/17 09:30:50;;;;;;;3.25;1.40;;;28.70;58.20;;;;;;5051792;28;20180;-74
2021/07/17 09:33:17;;;;;;;3.58;1.60;;;28.70;57.90;;;;;;5050289;28;20187;-74
2021/07/17 09:35:47;;;;;;;1.67;1.55;;;28.80;58.80;;;;;;5044803;28;20677;-74
2021/07/17 09:38:13;;;;;;;3.13;1.48;;;29.00;58.30;;;;;;5053143;28;20703;-74
2021/07/17 09:40:51;;;;;;;1.13;1.13;;;29.00;57.30;;;;;;5050334;28;20183;-74
2021/07/17 09:43:41;;;;;;;4.97;1.40;;;29.10;57.90;;;;;;5049880;28;20211;-74
2021/07/17 09:46:22;;;;;;;2.78;1.17;;;29.20;56.30;;;;;;5052801;28;20421;-74
2021/07/17 09:48:54;;;;;;;4.50;1.48;;;29.20;57.00;;;;;;5069752;28;20283;-74
2021/07/17 09:51:31;;;;;;;2.58;1.33;;;29.30;57.00;;;;;;5053774;28;20668;-75
2021/07/17 09:54:00;;;;;;;2.65;1.45;;;29.40;57.10;;;;;;5048263;28;20271;-75
2021/07/17 09:56:33;;;;;;;1.42;1.40;;;29.60;58.00;;;;;;5051068;28;20681;-74
2021/07/17 09:59:00;;;;;;;3.17;1.30;;;29.70;57.60;;;;;;5053993;28;20648;-73
2021/07/17 10:01:40;;;;;;;1.70;1.60;;;29.80;56.50;;;;;;5052060;28;20184;-73
2021/07/17 10:04:07;;;;;;;1.95;1.48;;;30.00;57.10;;;;;;5056438;28;20189;-74
2021/07/17 10:07:07;;;;;;;1.00;1.00;;;30.20;56.80;;;;;;5052772;28;20183;-74
2021/07/17 10:09:35;;;;;;;4.25;1.33;;;30.40;55.70;;;;;;5024949;28;20203;-74
2021/07/17 10:12:04;;;;;;;4.13;1.20;;;30.50;54.10;;;;;;5019887;28;20329;-74
2021/07/17 10:14:32;;;;;;;3.15;1.45;;;30.50;53.80;;;;;;5016925;28;20192;-74
2021/07/17 10:17:07;;;;;;;3.05;1.30;;;30.50;55.40;;;;;;5005677;28;20215;-74
2021/07/17 10:19:33;;;;;;;3.05;1.20;;;30.60;55.90;;;;;;5023168;28;20764;-74
2021/07/17 10:21:59;;;;;;;1.50;1.10;;;31.00;54.70;;;;;;5034905;28;20175;-74
2021/07/17 10:24:26;;;;;;;2.35;1.40;;;31.20;54.40;;;;;;5029778;28;20331;-74
2021/07/17 10:26:53;;;;;;;2.28;1.40;;;31.40;53.90;;;;;;5033930;28;20200;-74
2021/07/17 10:29:20;;;;;;;1.50;1.40;;;31.50;53.20;;;;;;5029027;28;20180;-74
2021/07/17 10:31:48;;;;;;;1.27;1.20;;;31.60;53.00;;;;;;5030972;28;20287;-74
2021/07/17 10:34:15;;;;;;;4.85;1.33;;;31.80;54.30;;;;;;5005134;28;20254;-73
2021/07/17 10:36:49;;;;;;;1.85;1.40;;;32.30;54.60;;;;;;5029330;28;20215;-74
2021/07/17 10:39:16;;;;;;;1.15;1.15;;;32.80;52.90;;;;;;5024279;28;20199;-73
2021/07/17 10:41:44;;;;;;;1.70;1.60;;;33.30;51.10;;;;;;5018242;28;20188;-73
2021/07/17 10:44:10;;;;;;;1.25;1.25;;;33.70;51.40;;;;;;5021704;28;20218;-74
2021/07/17 10:46:37;;;;;;;2.42;1.20;;;34.20;51.10;;;;;;5051417;28;20554;-74
2021/07/17 10:49:09;;;;;;;2.15;1.65;;;34.70;51.20;;;;;;5053753;28;20432;-74
2021/07/17 10:51:40;;;;;;;3.42;1.60;;;35.20;48.80;;;;;;5049283;28;20179;-74
2021/07/17 10:54:07;;;;;;;4.25;1.52;;;35.60;48.70;;;;;;5050682;28;20188;-74
2021/07/17 10:56:35;;;;;;;2.28;1.20;;;35.70;49.50;;;;;;5055638;28;20193;-74
2021/07/17 10:59:29;;;;;;;3.50;1.45;;;36.00;48.50;;;;;;5049505;28;20744;-73
2021/07/17 11:02:00;;;;;;;1.75;1.35;;;36.40;46.60;;;;;;5045500;28;20198;-73
2021/07/17 11:04:31;;;;;;;1.50;1.20;;;36.70;47.40;;;;;;5082914;28;20183;-73
2021/07/17 11:07:17;;;;;;;1.40;1.30;;;37.10;47.70;;;;;;5050887;28;20191;-74
2021/07/17 11:09:55;;;;;;;7.75;1.42;;;37.30;45.20;;;;;;5055784;28;20187;-73
2021/07/17 11:12:26;;;;;;;1.02;1.02;;;37.30;44.90;;;;;;5059434;28;20277;-74
2021/07/17 11:14:53;;;;;;;2.70;1.40;;;37.40;47.60;;;;;;5054489;28;20277;-73
2021/07/17 11:17:42;;;;;;;6.93;1.27;;;37.40;46.00;;;;;;5059679;28;20218;-73
2021/07/17 11:20:36;;;;;;;1.23;1.23;;;37.30;45.00;;;;;;5057486;28;20199;-73
2021/07/17 11:23:06;;;;;;;1.30;1.20;;;37.60;44.70;;;;;;5048385;28;20225;-74
2021/07/17 11:25:33;;;;;;;2.20;1.20;;;37.80;44.60;;;;;;5053107;28;20241;-74
2021/07/17 11:27:59;;;;;;;1.45;1.42;;;37.60;45.40;;;;;;5055919;28;20783;-75
2021/07/17 11:30:30;;;;;;;2.08;1.25;;;37.80;45.60;;;;;;5058142;28;20179;-75
2021/07/17 11:33:05;;;;;;;3.33;1.63;;;38.00;46.30;;;;;;5051351;28;20674;-74
2021/07/17 11:35:37;;;;;;;2.47;1.00;;;38.00;44.50;;;;;;5050495;28;20188;-74
2021/07/17 11:38:07;;;;;;;2.67;1.30;;;38.10;45.90;;;;;;5054665;28;20215;-73
2021/07/17 11:40:34;;;;;;;2.47;1.80;;;38.20;46.00;;;;;;5052449;28;20185;-74
2021/07/17 11:43:01;;;;;;;1.23;1.20;;;38.40;46.00;;;;;;5052105;28;20183;-74
2021/07/17 11:45:27;;;;;;;1.67;1.58;;;38.80;46.30;;;;;;5043014;28;20235;-74
2021/07/17 11:47:52;;;;;;;1.48;1.30;;;39.40;46.60;;;;;;5055515;28;20186;-74
2021/07/17 11:50:22;;;;;;;6.13;1.42;;;39.80;43.50;;;;;;5052310;28;20194;-75
2021/07/17 11:52:48;;;;;;;1.25;1.25;;;39.70;42.80;;;;;;5056541;28;20188;-75
2021/07/17 11:55:16;;;;;;;1.33;1.33;;;39.40;43.50;;;;;;5051296;28;20631;-74
2021/07/17 11:57:44;;;;;;;1.23;1.23;;;39.30;43.70;;;;;;5052989;28;20217;-74
2021/07/17 12:00:17;;;;;;;1.02;1.02;;;39.30;43.10;;;;;;5045617;28;20229;-74
2021/07/17 12:02:53;;;;;;;4.70;1.30;;;39.40;43.40;;;;;;5056019;28;20251;-73
2021/07/17 12:05:19;;;;;;;1.33;1.23;;;39.60;43.50;;;;;;5054641;28;20178;-74
2021/07/17 12:07:46;;;;;;;3.78;1.25;;;40.00;43.40;;;;;;5056742;28;20191;-74
2021/07/17 12:10:17;;;;;;;1.95;1.23;;;39.90;41.50;;;;;;5054330;28;20211;-74
2021/07/17 12:12:44;;;;;;;2.25;1.30;;;39.60;42.50;;;;;;5055684;28;20195;-73
2021/07/17 12:15:22;;;;;;;1.00;1.00;;;39.40;42.30;;;;;;5053532;28;20608;-73
2021/07/17 12:17:47;;;;;;;1.38;1.25;;;39.20;42.50;;;;;;5053149;28;20607;-75
2021/07/17 12:20:13;;;;;;;1.83;1.50;;;39.20;44.00;;;;;;5056945;28;20174;-74
2021/07/17 12:23:02;;;;;;;1.60;1.60;;;39.60;43.80;;;;;;5053549;28;20266;-73
2021/07/17 12:25:31;;;;;;;3.13;1.85;;;40.40;45.00;;;;;;5047931;28;20191;-73
2021/07/17 12:28:06;;;;;;;4.15;2.25;;;41.20;45.30;;;;;;5054280;28;20179;-73
2021/07/17 12:30:38;;;;;;;2.30;2.20;;;41.80;44.90;;;;;;5056233;28;20543;-74
2021/07/17 12:33:26;;;;;;;4.60;2.35;;;42.50;44.80;;;;;;5051345;28;20194;-74
2021/07/17 12:36:06;;;;;;;2.33;1.88;;;42.80;43.30;;;;;;5047300;28;20565;-74
2021/07/17 12:38:35;;;;;;;2.65;2.45;;;42.30;44.00;;;;;;5053781;28;20214;-74
2021/07/17 12:41:10;;;;;;;2.45;2.25;;;41.60;45.30;;;;;;5051209;28;20183;-74
2021/07/17 12:43:45;;;;;;;1.77;1.77;;;40.80;44.10;;;;;;5048855;28;20240;-74
2021/07/17 12:46:16;;;;;;;4.85;2.38;;;39.80;46.40;;;;;;5052942;28;20265;-74
2021/07/17 12:48:50;;;;;;;2.20;1.73;;;39.00;46.80;;;;;;5050115;28;20183;-74
2021/07/17 12:51:37;;;;;;;2.05;2.00;;;39.10;46.90;;;;;;5052567;28;20739;-74